createdAt,value
2023-04-09T00:02:37.717Z,99021.09
2023-04-09T00:07:39.568Z,99032.75
2023-04-09T00:12:41.285Z,99030.00
2023-04-09T00:17:43.057Z,99026.03
2023-04-09T00:22:44.667Z,99021.81
2023-04-09T00:27:46.251Z,99019.63
2023-04-09T00:32:47.899Z,99014.88
2023-04-09T00:37:49.780Z,99017.81
2023-04-09T00:42:51.417Z,99016.16
2023-04-09T00:47:53.679Z,99014.38
2023-04-09T00:52:56.132Z,99014.50
2023-04-09T00:57:57.719Z,99015.63
2023-04-09T01:03:00.876Z,99005.91
2023-04-09T01:08:08.738Z,99006.47
2023-04-09T01:13:20.425Z,99010.75
2023-04-09T01:18:43.043Z,99011.38
2023-04-09T01:23:52.478Z,99008.19
2023-04-09T01:28:56.093Z,99009.34
2023-04-09T01:34:00.778Z,99008.47
2023-04-09T01:39:03.235Z,99003.88
2023-04-09T01:44:07.724Z,99007.09
2023-04-09T01:49:12.461Z,99007.56
2023-04-09T01:54:14.584Z,99002.63
2023-04-09T01:59:16.274Z,99000.84
2023-04-09T02:04:44.057Z,99002.53
2023-04-09T02:09:47.841Z,99002.81
2023-04-09T02:14:52.410Z,98999.19
2023-04-09T02:19:54.078Z,98992.91
2023-04-09T02:24:55.793Z,98989.16
2023-04-09T02:29:57.424Z,98990.16
2023-04-09T02:34:59.018Z,98984.81
2023-04-09T02:40:00.613Z,98984.25
2023-04-09T02:45:02.179Z,98985.09
2023-04-09T02:50:04.577Z,98979.94
2023-04-09T02:55:06.758Z,98980.69
2023-04-09T03:00:09.086Z,98982.34
2023-04-09T03:05:10.742Z,98992.44
2023-04-09T03:10:12.310Z,98986.03
2023-04-09T03:15:13.920Z,98983.66
2023-04-09T03:20:15.576Z,98987.25
2023-04-09T03:25:19.580Z,98974.34
2023-04-09T03:30:21.384Z,98973.34
2023-04-09T03:35:23.005Z,98966.53
2023-04-09T03:40:24.719Z,98969.22
2023-04-09T03:45:27.066Z,98960.19
2023-04-09T03:50:28.644Z,98967.28
2023-04-09T03:55:30.558Z,98976.50
2023-04-09T04:00:32.176Z,98978.84
2023-04-09T04:05:33.793Z,98977.22
2023-04-09T04:10:35.356Z,98979.69
2023-04-09T04:15:43.310Z,98981.56
2023-04-09T04:20:44.970Z,98984.44
2023-04-09T04:25:46.657Z,98979.75
2023-04-09T04:30:48.483Z,98978.97
2023-04-09T04:35:50.124Z,98985.72
2023-04-09T04:40:51.676Z,98984.50
2023-04-09T04:45:53.700Z,98976.38
2023-04-09T04:51:00.346Z,98981.69
2023-04-09T04:56:01.942Z,98992.38
2023-04-09T05:01:03.653Z,98995.59
2023-04-09T05:06:05.327Z,98990.38
2023-04-09T05:11:06.917Z,98991.47
2023-04-09T05:16:08.524Z,98996.41
2023-04-09T05:21:10.108Z,98995.94
2023-04-09T05:26:11.665Z,99005.03
2023-04-09T05:31:13.735Z,99007.78
2023-04-09T05:36:17.296Z,99015.22
2023-04-09T05:41:18.912Z,99017.50
2023-04-09T05:46:20.526Z,99017.47
2023-04-09T05:51:22.112Z,99013.94
2023-04-09T05:56:23.755Z,99017.56
2023-04-09T06:01:25.350Z,99016.03
2023-04-09T06:06:27.182Z,99025.34
2023-04-09T06:11:28.774Z,99015.50
2023-04-09T06:16:30.631Z,99020.53
2023-04-09T06:21:33.303Z,99023.47
2023-04-09T06:26:34.893Z,99024.84
2023-04-09T06:31:36.601Z,99022.91
2023-04-09T06:36:40.451Z,99019.03
2023-04-09T06:41:42.113Z,99035.63
2023-04-09T06:46:43.727Z,99039.22
2023-04-09T06:51:45.384Z,99043.69
2023-04-09T06:56:46.988Z,99043.47
2023-04-09T07:01:48.893Z,99045.44
2023-04-09T07:06:51.688Z,99048.75
2023-04-09T07:11:53.281Z,99052.66
2023-04-09T07:16:54.830Z,99069.38
2023-04-09T07:21:56.892Z,99064.59
2023-04-09T07:26:58.441Z,99073.13
2023-04-09T07:32:01.462Z,99068.63
2023-04-09T07:37:03.530Z,99065.78
2023-04-09T07:42:06.030Z,99071.69
2023-04-09T07:47:08.835Z,99073.03
2023-04-09T07:52:10.853Z,99072.75
2023-04-09T07:57:12.452Z,99074.50
2023-04-09T08:02:15.452Z,99077.00
2023-04-09T08:07:17.173Z,99085.06
2023-04-09T08:12:18.748Z,99088.84
2023-04-09T08:17:20.362Z,99093.00
2023-04-09T08:22:22.061Z,99092.81
2023-04-09T08:27:23.692Z,99092.19
2023-04-09T08:32:25.413Z,99100.75
2023-04-09T08:37:27.493Z,99103.25
2023-04-09T08:42:31.335Z,99113.22
2023-04-09T08:47:34.310Z,99119.44
2023-04-09T08:52:37.354Z,99117.25
2023-04-09T08:57:39.816Z,99114.72
2023-04-09T09:03:08.435Z,99130.47
2023-04-09T09:08:12.662Z,99128.94
2023-04-09T09:13:24.954Z,99134.31
2023-04-09T09:18:41.641Z,99144.44
2023-04-09T09:23:43.831Z,99131.88
2023-04-09T09:28:47.058Z,99143.31
2023-04-09T09:33:50.585Z,99139.94
2023-04-09T09:38:57.337Z,99153.47
2023-04-09T09:43:59.007Z,99137.44
2023-04-09T09:49:00.603Z,99137.75
2023-04-09T09:54:02.643Z,99142.56
2023-04-09T09:59:23.943Z,99139.53
2023-04-09T10:04:28.825Z,99159.06
2023-04-09T10:09:31.380Z,99157.28
2023-04-09T10:14:36.034Z,99150.84
2023-04-09T10:19:49.369Z,99151.19
2023-04-09T10:24:52.743Z,99154.56
2023-04-09T10:29:54.398Z,99150.28
2023-04-09T10:35:01.780Z,99139.72
2023-04-09T10:40:04.026Z,99139.06
2023-04-09T10:45:15.258Z,99123.31
2023-04-09T10:50:27.916Z,99125.41
2023-04-09T10:55:48.325Z,99125.72
2023-04-09T11:00:52.378Z,99122.31
2023-04-09T11:06:06.044Z,99118.72
2023-04-09T11:11:07.686Z,99113.41
2023-04-09T11:16:09.292Z,99107.25
2023-04-09T11:21:13.509Z,99103.63
2023-04-09T11:26:15.084Z,99105.16
2023-04-09T11:31:16.749Z,99102.63
2023-04-09T11:36:18.996Z,99100.91
2023-04-09T11:41:36.216Z,99101.53
2023-04-09T11:46:39.078Z,99100.66
2023-04-09T11:51:41.020Z,99093.84
2023-04-09T11:56:42.987Z,99100.47
2023-04-09T12:01:49.824Z,99089.19
2023-04-09T12:06:51.980Z,99095.13
2023-04-09T12:11:53.673Z,99093.13
2023-04-09T12:16:55.386Z,99091.88
2023-04-09T12:21:58.505Z,99089.88
2023-04-09T12:27:01.694Z,99088.28
2023-04-09T12:32:03.667Z,99088.94
2023-04-09T12:37:05.548Z,99080.19
2023-04-09T12:42:07.147Z,99072.56
2023-04-09T12:47:08.822Z,99068.78
2023-04-09T12:52:10.445Z,99069.78
2023-04-09T12:57:12.018Z,99063.91
2023-04-09T13:02:13.768Z,99054.13
2023-04-09T13:07:17.575Z,99050.31
2023-04-09T13:12:21.598Z,99054.91
2023-04-09T13:17:23.424Z,99056.00
2023-04-09T13:22:25.069Z,99050.00
2023-04-09T13:27:26.639Z,99068.00
2023-04-09T13:32:28.274Z,99064.78
2023-04-09T13:37:29.891Z,99065.13
2023-04-09T13:42:31.721Z,99062.91
2023-04-09T13:47:33.382Z,99063.81
2023-04-09T13:52:35.078Z,99063.75
2023-04-09T13:57:36.776Z,99055.66
2023-04-09T14:02:38.430Z,99066.44
2023-04-09T14:07:40.058Z,99092.25
2023-04-09T14:12:41.953Z,99101.88
2023-04-09T14:17:44.158Z,99118.69
2023-04-09T14:22:49.190Z,99122.94
2023-04-09T14:27:50.919Z,99121.34
2023-04-09T14:32:52.581Z,99116.03
2023-04-09T14:37:54.251Z,99117.56
2023-04-09T14:42:55.849Z,99104.94
2023-04-09T14:47:57.591Z,99112.84
2023-04-09T14:52:59.642Z,99109.88
2023-04-09T14:58:04.346Z,99104.63
2023-04-09T15:03:06.570Z,99094.72
2023-04-09T15:08:08.310Z,99102.97
2023-04-09T15:13:09.971Z,99104.13
2023-04-09T15:18:11.527Z,99104.59
2023-04-09T15:23:13.201Z,99099.19
2023-04-09T15:28:14.765Z,99099.59
2023-04-09T15:33:16.384Z,99098.41
2023-04-09T15:38:18.012Z,99099.06
2023-04-09T15:43:19.629Z,99103.88
2023-04-09T15:48:21.217Z,99103.22
2023-04-09T15:53:26.687Z,99108.94
2023-04-09T15:58:28.863Z,99107.25
2023-04-09T16:03:35.357Z,99112.50
2023-04-09T16:08:37.552Z,99106.88
2023-04-09T16:13:39.170Z,99104.28
2023-04-09T16:18:40.826Z,99104.84
2023-04-09T16:23:42.487Z,99111.81
2023-04-09T16:28:44.099Z,99114.91
2023-04-09T16:33:45.909Z,99109.56
2023-04-09T16:38:48.265Z,99110.69
2023-04-09T16:43:51.223Z,99119.31
2023-04-09T16:48:53.093Z,99119.31
2023-04-09T16:53:54.919Z,99123.41
2023-04-09T16:58:56.550Z,99117.19
2023-04-09T17:03:59.635Z,99120.28
2023-04-09T17:09:03.684Z,99120.22
2023-04-09T17:14:05.871Z,99115.03
2023-04-09T17:19:09.107Z,99123.31
2023-04-09T17:24:10.781Z,99112.41
2023-04-09T17:29:12.456Z,99122.94
2023-04-09T17:34:16.304Z,99118.94
2023-04-09T17:39:17.915Z,99122.75
2023-04-09T17:44:19.503Z,99119.09
2023-04-09T17:49:22.465Z,99125.81
2023-04-09T17:54:24.247Z,99127.03
2023-04-09T17:59:25.976Z,99136.22
2023-04-09T18:04:27.914Z,99133.75
2023-04-09T18:09:29.686Z,99141.78
2023-04-09T18:14:32.523Z,99145.03
2023-04-09T18:19:34.136Z,99158.53
2023-04-09T18:24:35.869Z,99157.31
2023-04-09T18:29:37.453Z,99154.97
2023-04-09T18:34:39.012Z,99168.81
2023-04-09T18:39:40.967Z,99167.00
2023-04-09T18:44:42.670Z,99179.28
2023-04-09T18:49:44.365Z,99181.06
2023-04-09T18:54:46.139Z,99180.91
2023-04-09T18:59:48.620Z,99190.50
2023-04-09T19:04:50.380Z,99185.66
2023-04-09T19:09:52.269Z,99190.53
2023-04-09T19:14:54.387Z,99198.38
2023-04-09T19:19:56.214Z,99191.44
2023-04-09T19:24:57.886Z,99191.91
2023-04-09T19:30:01.258Z,99195.75
2023-04-09T19:35:03.542Z,99194.72
2023-04-09T19:40:11.110Z,99196.31
2023-04-09T19:45:12.888Z,99193.25
2023-04-09T19:50:14.654Z,99197.59
2023-04-09T19:55:16.260Z,99204.28
2023-04-09T20:00:17.875Z,99199.25
2023-04-09T20:05:21.124Z,99201.66
2023-04-09T20:10:22.920Z,99201.03
2023-04-09T20:15:24.592Z,99209.66
2023-04-09T20:20:26.294Z,99209.84
2023-04-09T20:25:33.941Z,99199.47
2023-04-09T20:30:35.806Z,99207.88
2023-04-09T20:35:37.476Z,99204.91
2023-04-09T20:40:39.121Z,99208.13
2023-04-09T20:45:40.816Z,99210.66
2023-04-09T20:50:42.769Z,99217.19
2023-04-09T20:55:44.720Z,99212.13
2023-04-09T21:00:46.378Z,99208.69
2023-04-09T21:05:47.994Z,99209.28
2023-04-09T21:10:49.626Z,99206.69
2023-04-09T21:15:51.322Z,99209.16
2023-04-09T21:20:53.521Z,99206.28
2023-04-09T21:25:55.194Z,99211.97
2023-04-09T21:30:57.704Z,99219.47
2023-04-09T21:35:59.438Z,99212.38
2023-04-09T21:41:01.887Z,99212.13
2023-04-09T21:46:03.701Z,99212.78
2023-04-09T21:51:09.640Z,99213.91
2023-04-09T21:56:11.486Z,99220.50
2023-04-09T22:01:26.167Z,99224.38
2023-04-09T22:06:30.146Z,99226.44
2023-04-09T22:11:34.476Z,99224.66
2023-04-09T22:16:36.257Z,99230.69
2023-04-09T22:21:37.870Z,99227.75
2023-04-09T22:26:40.973Z,99234.13
2023-04-09T22:31:42.657Z,99234.91
2023-04-09T22:36:44.326Z,99241.19
2023-04-09T22:41:45.892Z,99236.97
2023-04-09T22:46:47.506Z,99244.97
2023-04-09T22:51:49.211Z,99235.84
2023-04-09T22:56:50.870Z,99235.38
2023-04-09T23:01:52.515Z,99236.91
2023-04-09T23:06:54.671Z,99234.53
2023-04-09T23:11:57.173Z,99239.63
2023-04-09T23:16:58.800Z,99229.63
2023-04-09T23:22:00.494Z,99234.28
2023-04-09T23:27:02.533Z,99230.50
2023-04-09T23:32:04.152Z,99240.97
2023-04-09T23:37:05.775Z,99239.31
2023-04-09T23:42:07.326Z,99241.16
2023-04-09T23:47:09.043Z,99248.13
2023-04-09T23:52:10.820Z,99242.03
2023-04-09T23:57:12.502Z,99230.56
